createdAt,value
2023-01-20T00:00:15.686Z,14.30
2023-01-20T00:03:18.415Z,14.93
2023-01-20T00:06:28.731Z,14.60
2023-01-20T00:09:32.162Z,13.00
2023-01-20T00:12:34.819Z,13.37
2023-01-20T00:15:37.533Z,11.40
2023-01-20T00:18:41.335Z,11.90
2023-01-20T00:21:45.562Z,11.97
2023-01-20T00:24:48.198Z,12.00
2023-01-20T00:27:54.344Z,12.57
2023-01-20T00:30:59.232Z,11.80
2023-01-20T00:34:02.780Z,13.20
2023-01-20T00:37:09.814Z,12.53
2023-01-20T00:40:13.675Z,11.33
2023-01-20T00:43:16.432Z,10.97
2023-01-20T00:46:26.663Z,11.40
2023-01-20T00:49:32.346Z,10.83
2023-01-20T00:52:38.110Z,11.63
2023-01-20T00:55:40.791Z,12.07
2023-01-20T00:58:45.539Z,12.20
2023-01-20T01:02:03.874Z,12.50
2023-01-20T01:05:12.721Z,13.17
2023-01-20T01:08:19.819Z,11.97
2023-01-20T01:11:24.790Z,11.50
2023-01-20T01:14:31.956Z,11.93
2023-01-20T01:17:39.284Z,10.47
2023-01-20T01:20:46.946Z,10.93
2023-01-20T01:23:51.849Z,11.03
2023-01-20T01:26:54.864Z,10.80
2023-01-20T01:29:57.480Z,10.77
2023-01-20T01:33:00.498Z,10.83
2023-01-20T01:36:04.794Z,9.97
2023-01-20T01:39:08.899Z,10.77
2023-01-20T01:42:16.214Z,10.53
2023-01-20T01:45:27.945Z,10.97
2023-01-20T01:48:34.728Z,10.20
2023-01-20T01:51:42.332Z,10.87
2023-01-20T01:54:46.499Z,10.80
2023-01-20T01:57:50.264Z,10.50
2023-01-20T02:00:57.847Z,10.17
2023-01-20T02:04:06.590Z,9.77
2023-01-20T02:07:12.778Z,8.83
2023-01-20T02:10:19.471Z,9.93
2023-01-20T02:13:22.287Z,9.87
2023-01-20T02:16:43.951Z,10.77
2023-01-20T02:20:26.659Z,10.80
2023-01-20T02:23:55.804Z,9.90
2023-01-20T02:27:09.414Z,9.07
2023-01-20T02:30:32.921Z,9.80
2023-01-20T02:33:42.107Z,9.80
2023-01-20T02:36:48.956Z,9.33
2023-01-20T02:39:59.841Z,10.70
2023-01-20T02:46:34.842Z,9.13
2023-01-20T02:49:42.151Z,10.27
2023-01-20T02:52:55.699Z,11.20
2023-01-20T02:55:58.555Z,10.47
2023-01-20T02:59:05.361Z,10.47
2023-01-20T03:02:11.935Z,10.17
2023-01-20T03:05:22.567Z,9.30
2023-01-20T03:08:27.991Z,9.37
2023-01-20T03:11:33.067Z,9.13
2023-01-20T03:14:37.013Z,9.33
2023-01-20T03:17:40.344Z,8.93
2023-01-20T03:20:44.469Z,9.47
2023-01-20T03:23:49.716Z,9.33
2023-01-20T03:26:53.270Z,9.20
2023-01-20T03:29:55.965Z,9.93
2023-01-20T03:32:58.826Z,9.70
2023-01-20T03:36:03.323Z,9.77
2023-01-20T03:39:06.732Z,10.80
2023-01-20T03:42:13.943Z,9.47
2023-01-20T03:45:25.469Z,9.50
2023-01-20T03:48:42.123Z,9.70
2023-01-20T03:51:58.048Z,9.17
2023-01-20T03:55:05.917Z,8.80
2023-01-20T03:58:12.767Z,9.37
2023-01-20T04:01:22.077Z,9.33
2023-01-20T04:04:29.903Z,9.87
2023-01-20T04:07:34.247Z,10.63
2023-01-20T04:10:41.954Z,11.20
2023-01-20T04:13:44.698Z,12.70
2023-01-20T04:16:53.261Z,13.00
2023-01-20T04:20:07.303Z,14.37
2023-01-20T04:23:18.696Z,14.87
2023-01-20T04:26:21.363Z,15.00
2023-01-20T04:29:24.061Z,14.97
2023-01-20T04:32:26.846Z,14.07
2023-01-20T04:35:31.660Z,14.23
2023-01-20T04:38:35.650Z,14.83
2023-01-20T04:41:38.471Z,15.67
2023-01-20T04:44:41.195Z,15.37
2023-01-20T04:47:44.155Z,16.27
2023-01-20T04:50:46.878Z,16.33
2023-01-20T04:53:57.846Z,17.33
2023-01-20T04:57:00.499Z,18.63
2023-01-20T05:00:06.533Z,15.80
2023-01-20T05:03:09.261Z,14.90
2023-01-20T05:06:12.668Z,13.87
2023-01-20T05:09:17.487Z,14.03
2023-01-20T05:12:22.537Z,14.33
2023-01-20T05:15:25.173Z,15.10
2023-01-20T05:18:27.823Z,15.20
2023-01-20T05:21:30.527Z,15.80
2023-01-20T05:24:34.601Z,16.73
2023-01-20T05:27:37.764Z,18.23
2023-01-20T05:30:43.012Z,19.57
2023-01-20T05:33:45.823Z,17.90
2023-01-20T05:36:52.340Z,18.13
2023-01-20T05:39:56.421Z,19.27
2023-01-20T05:43:00.182Z,19.03
2023-01-20T05:46:07.459Z,20.47
2023-01-20T05:49:11.473Z,19.97
2023-01-20T05:52:14.160Z,19.47
2023-01-20T05:55:18.238Z,21.00
2023-01-20T05:58:23.874Z,19.13
2023-01-20T06:01:26.953Z,18.07
2023-01-20T06:04:29.753Z,18.43
2023-01-20T06:07:34.545Z,18.87
2023-01-20T06:10:38.590Z,18.37
2023-01-20T06:13:43.576Z,19.23
2023-01-20T06:16:46.243Z,18.80
2023-01-20T06:20:14.198Z,17.53
2023-01-20T06:23:17.552Z,17.30
2023-01-20T06:26:21.618Z,19.20
2023-01-20T06:29:24.321Z,18.60
2023-01-20T06:32:27.449Z,18.47
2023-01-20T06:35:30.120Z,18.50
2023-01-20T06:38:35.064Z,18.47
2023-01-20T06:41:39.053Z,17.70
2023-01-20T06:44:41.729Z,17.90
2023-01-20T06:47:44.399Z,18.40
2023-01-20T06:50:47.028Z,17.83
2023-01-20T06:53:49.745Z,16.23
2023-01-20T06:56:53.786Z,15.10
2023-01-20T06:59:58.915Z,15.43
2023-01-20T07:03:02.071Z,15.70
2023-01-20T07:06:08.548Z,15.40
2023-01-20T07:09:13.679Z,16.23
2023-01-20T07:12:17.849Z,19.97
2023-01-20T07:15:20.620Z,16.47
2023-01-20T07:18:29.561Z,15.83
2023-01-20T07:21:32.459Z,26.03
2023-01-20T07:24:40.361Z,17.67
2023-01-20T07:27:44.376Z,24.27
2023-01-20T07:30:53.438Z,26.07
2023-01-20T07:33:56.825Z,23.47
2023-01-20T07:37:01.906Z,18.10
2023-01-20T07:40:07.387Z,17.60
2023-01-20T07:43:11.468Z,19.93
2023-01-20T07:46:14.877Z,18.10
2023-01-20T07:49:17.892Z,16.03
2023-01-20T07:52:20.872Z,17.10
2023-01-20T07:55:25.185Z,20.47
2023-01-20T07:58:29.985Z,17.40
2023-01-20T08:01:33.913Z,17.30
2023-01-20T08:04:40.717Z,16.17
2023-01-20T08:07:43.500Z,21.40
2023-01-20T08:10:49.024Z,16.97
2023-01-20T08:13:53.940Z,18.07
2023-01-20T08:16:56.644Z,17.43
2023-01-20T08:19:59.328Z,16.43
2023-01-20T08:23:02.007Z,16.37
2023-01-20T08:26:07.070Z,15.97
2023-01-20T08:29:11.295Z,13.93
2023-01-20T08:32:14.043Z,15.40
2023-01-20T08:35:19.579Z,14.77
2023-01-20T08:38:22.226Z,16.23
2023-01-20T08:41:27.684Z,15.50
2023-01-20T08:44:34.807Z,15.97
2023-01-20T08:47:39.846Z,16.47
2023-01-20T08:50:42.498Z,18.03
2023-01-20T08:53:45.719Z,17.53
2023-01-20T08:56:51.187Z,17.90
2023-01-20T08:59:55.821Z,17.87
2023-01-20T09:02:58.485Z,16.03
2023-01-20T09:06:03.357Z,17.80
2023-01-20T09:09:06.041Z,17.93
2023-01-20T09:12:09.190Z,19.63
2023-01-20T09:15:14.128Z,17.83
2023-01-20T09:18:17.497Z,17.73
2023-01-20T09:21:20.331Z,22.70
2023-01-20T09:24:23.352Z,18.20
2023-01-20T09:27:26.900Z,17.43
2023-01-20T09:30:31.164Z,17.67
2023-01-20T09:33:36.106Z,18.23
2023-01-20T09:36:46.802Z,17.03
2023-01-20T09:40:07.579Z,17.43
2023-01-20T09:43:42.814Z,20.50
2023-01-20T09:47:18.179Z,17.20
2023-01-20T09:50:50.284Z,18.00
2023-01-20T09:54:04.057Z,19.43
2023-01-20T09:57:09.136Z,17.63
2023-01-20T10:00:18.658Z,17.67
2023-01-20T10:03:36.903Z,19.07
2023-01-20T10:06:44.298Z,17.20
2023-01-20T10:10:04.531Z,17.97
2023-01-20T10:13:14.275Z,19.23
2023-01-20T10:16:28.373Z,16.80
2023-01-20T10:19:38.661Z,17.70
2023-01-20T10:22:49.967Z,17.97
2023-01-20T10:26:02.059Z,17.23
2023-01-20T10:29:12.803Z,16.77
2023-01-20T10:32:32.319Z,18.03
2023-01-20T10:35:40.119Z,15.97
2023-01-20T10:38:52.588Z,16.33
2023-01-20T10:42:03.350Z,16.33
2023-01-20T10:45:19.278Z,17.53
2023-01-20T10:48:38.231Z,16.47
2023-01-20T10:51:54.551Z,17.93
2023-01-20T10:55:06.155Z,17.73
2023-01-20T10:58:18.248Z,17.50
2023-01-20T11:01:22.172Z,17.53
2023-01-20T11:04:24.887Z,21.30
2023-01-20T11:07:30.149Z,19.53
2023-01-20T11:10:34.180Z,21.00
2023-01-20T11:13:36.855Z,23.27
2023-01-20T11:16:41.052Z,20.97
2023-01-20T11:19:53.086Z,20.63
2023-01-20T11:23:06.564Z,19.13
2023-01-20T11:26:25.595Z,19.97
2023-01-20T11:29:31.693Z,18.73
2023-01-20T11:32:36.687Z,21.13
2023-01-20T11:35:39.349Z,17.70
2023-01-20T11:38:49.163Z,24.03
2023-01-20T11:42:12.004Z,19.97
2023-01-20T11:45:27.495Z,17.40
2023-01-20T11:48:30.131Z,15.33
2023-01-20T11:51:32.728Z,16.77
2023-01-20T11:54:37.378Z,16.67
2023-01-20T11:57:44.667Z,31.90
2023-01-20T12:00:52.240Z,24.83
2023-01-20T12:04:35.032Z,14.57
2023-01-20T12:07:44.969Z,20.80
2023-01-20T12:10:50.714Z,10.80
2023-01-20T12:14:23.115Z,11.50
2023-01-20T12:17:58.591Z,11.63
2023-01-20T12:21:07.966Z,12.33
2023-01-20T12:24:19.566Z,12.97
2023-01-20T12:27:29.193Z,14.17
2023-01-20T12:30:56.902Z,14.17
2023-01-20T12:34:15.919Z,12.97
2023-01-20T12:37:32.560Z,14.00
2023-01-20T12:40:43.064Z,13.17
2023-01-20T12:43:59.777Z,11.73
2023-01-20T12:47:19.140Z,10.17
2023-01-20T12:50:35.576Z,9.50
2023-01-20T12:54:06.512Z,9.30
2023-01-20T12:57:22.199Z,10.53
2023-01-20T13:00:54.426Z,8.57
2023-01-20T13:04:24.593Z,10.90
2023-01-20T13:07:51.778Z,9.83
2023-01-20T13:11:08.668Z,10.07
2023-01-20T13:14:18.684Z,10.40
2023-01-20T13:17:29.076Z,9.20
2023-01-20T13:20:32.154Z,9.67
2023-01-20T13:23:37.780Z,6.53
2023-01-20T13:26:40.774Z,7.90
2023-01-20T13:29:57.490Z,6.40
2023-01-20T13:33:08.768Z,5.80
2023-01-20T13:36:18.160Z,9.47
2023-01-20T13:39:41.929Z,10.10
2023-01-20T13:42:50.539Z,9.73
2023-01-20T13:46:34.106Z,7.40
2023-01-20T13:49:50.630Z,5.50
2023-01-20T13:53:05.942Z,7.50
2023-01-20T13:56:25.538Z,5.93
2023-01-20T13:59:28.204Z,22.50
2023-01-20T14:02:37.385Z,6.40
2023-01-20T14:05:44.036Z,6.17
2023-01-20T14:08:51.656Z,7.97
2023-01-20T14:11:56.192Z,9.83
2023-01-20T14:14:59.712Z,6.90
2023-01-20T14:18:03.069Z,9.10
2023-01-20T14:21:19.970Z,9.57
2023-01-20T14:24:30.021Z,11.50
2023-01-20T14:27:35.613Z,9.90
2023-01-20T14:30:38.466Z,10.50
2023-01-20T14:33:49.270Z,14.70
2023-01-20T14:37:00.852Z,13.87
2023-01-20T14:40:20.538Z,14.83
2023-01-20T14:43:23.417Z,15.67
2023-01-20T14:46:30.026Z,10.20
2023-01-20T14:49:44.720Z,8.40
2023-01-20T14:52:49.014Z,9.00
2023-01-20T14:56:07.572Z,8.47
2023-01-20T14:59:19.877Z,9.20
2023-01-20T15:02:30.195Z,8.73
2023-01-20T15:05:34.683Z,8.60
2023-01-20T15:09:04.356Z,8.67
2023-01-20T15:12:35.507Z,9.97
2023-01-20T15:15:38.313Z,10.50
2023-01-20T15:18:41.521Z,13.07
2023-01-20T15:21:46.725Z,9.10
2023-01-20T15:24:51.955Z,9.60
2023-01-20T15:27:55.781Z,13.97
2023-01-20T15:31:00.231Z,10.43
2023-01-20T15:34:03.191Z,8.80
2023-01-20T15:37:12.545Z,11.30
2023-01-20T15:40:26.812Z,9.07
2023-01-20T15:43:29.612Z,8.57
2023-01-20T15:46:32.800Z,8.53
2023-01-20T15:49:35.731Z,7.80
2023-01-20T15:52:38.395Z,8.70
2023-01-20T15:55:47.226Z,8.80
2023-01-20T15:58:53.097Z,8.60
2023-01-20T16:01:55.816Z,9.77
2023-01-20T16:05:02.356Z,10.47
2023-01-20T16:08:13.206Z,16.80
2023-01-20T16:11:18.876Z,15.97
2023-01-20T16:14:21.734Z,9.90
2023-01-20T16:17:26.195Z,10.80
2023-01-20T16:20:30.904Z,13.67
2023-01-20T16:23:33.545Z,21.40
2023-01-20T16:26:37.556Z,26.83
2023-01-20T16:29:41.731Z,26.73
2023-01-20T16:32:46.210Z,33.57
2023-01-20T16:35:56.664Z,25.60
2023-01-20T16:38:59.500Z,21.53
2023-01-20T16:42:11.003Z,17.10
2023-01-20T16:45:24.367Z,15.50
2023-01-20T16:48:27.107Z,17.13
2023-01-20T16:51:31.357Z,16.93
2023-01-20T16:54:36.316Z,16.30
2023-01-20T16:57:44.491Z,18.27
2023-01-20T17:00:59.805Z,18.50
2023-01-20T17:04:07.771Z,15.10
2023-01-20T17:07:14.494Z,15.20
2023-01-20T17:10:19.165Z,18.60
2023-01-20T17:13:23.725Z,19.60
2023-01-20T17:16:31.812Z,26.50
2023-01-20T17:19:35.373Z,23.57
2023-01-20T17:22:39.840Z,23.83
2023-01-20T17:25:51.586Z,23.70
2023-01-20T17:29:02.470Z,34.73
2023-01-20T17:32:05.940Z,21.63
2023-01-20T17:35:08.995Z,38.63
2023-01-20T17:38:11.845Z,20.17
2023-01-20T17:41:15.421Z,16.80
2023-01-20T17:44:25.404Z,24.63
2023-01-20T17:47:29.977Z,17.27
2023-01-20T17:50:38.898Z,13.47
2023-01-20T17:53:44.709Z,22.13
2023-01-20T17:56:47.992Z,14.10
2023-01-20T17:59:52.252Z,12.00
2023-01-20T18:02:56.859Z,21.00
2023-01-20T18:06:03.426Z,13.50
2023-01-20T18:09:08.171Z,10.50
2023-01-20T18:12:10.933Z,11.43
2023-01-20T18:15:15.098Z,13.23
2023-01-20T18:18:17.953Z,16.00
2023-01-20T18:21:22.268Z,16.57
2023-01-20T18:24:24.937Z,15.13
2023-01-20T18:27:27.626Z,16.83
2023-01-20T18:30:32.033Z,15.87
2023-01-20T18:33:38.267Z,15.00
2023-01-20T18:36:44.987Z,15.47
2023-01-20T18:39:48.883Z,14.43
2023-01-20T18:42:51.692Z,13.33
2023-01-20T18:45:56.038Z,15.03
2023-01-20T18:48:58.795Z,17.27
2023-01-20T18:52:01.544Z,14.30
2023-01-20T18:55:04.510Z,14.10
2023-01-20T18:58:08.639Z,14.73
2023-01-20T19:01:18.486Z,11.20
2023-01-20T19:04:24.271Z,11.33
2023-01-20T19:07:27.142Z,13.13
2023-01-20T19:10:29.804Z,12.80
2023-01-20T19:13:33.327Z,12.77
2023-01-20T19:16:39.317Z,12.03
2023-01-20T19:19:49.545Z,13.10
2023-01-20T19:22:52.230Z,13.20
2023-01-20T19:26:03.429Z,14.30
2023-01-20T19:29:10.393Z,11.90
2023-01-20T19:32:15.352Z,21.80
2023-01-20T19:35:18.023Z,18.63
2023-01-20T19:38:20.684Z,14.47
2023-01-20T19:41:27.700Z,14.23
2023-01-20T19:44:30.533Z,13.80
2023-01-20T19:47:35.384Z,14.87
2023-01-20T19:50:38.470Z,14.87
2023-01-20T19:53:41.888Z,20.80
2023-01-20T19:56:44.674Z,24.33
2023-01-20T19:59:50.740Z,24.57
2023-01-20T20:02:55.305Z,23.10
2023-01-20T20:05:58.280Z,15.50
2023-01-20T20:09:03.269Z,13.53
2023-01-20T20:12:07.726Z,14.57
2023-01-20T20:15:11.069Z,14.77
2023-01-20T20:18:15.516Z,14.87
2023-01-20T20:21:18.315Z,14.63
2023-01-20T20:24:29.322Z,17.50
2023-01-20T20:27:31.941Z,19.30
2023-01-20T20:30:34.567Z,15.30
2023-01-20T20:33:38.807Z,17.93
2023-01-20T20:36:41.541Z,19.13
2023-01-20T20:39:44.357Z,18.57
2023-01-20T20:42:48.595Z,17.13
2023-01-20T20:45:51.456Z,19.10
2023-01-20T20:48:56.680Z,17.13
2023-01-20T20:51:59.331Z,15.17
2023-01-20T20:55:01.996Z,13.07
2023-01-20T20:58:04.918Z,13.90
2023-01-20T21:01:11.704Z,19.57
2023-01-20T21:04:15.677Z,17.43
2023-01-20T21:07:23.379Z,17.33
2023-01-20T21:10:26.066Z,18.77
2023-01-20T21:13:29.304Z,17.53
2023-01-20T21:16:31.977Z,19.67
2023-01-20T21:19:36.130Z,21.37
2023-01-20T21:22:39.197Z,19.77
2023-01-20T21:25:41.856Z,18.67
2023-01-20T21:28:44.901Z,19.60
2023-01-20T21:31:48.535Z,19.70
2023-01-20T21:34:55.306Z,20.47
2023-01-20T21:37:57.968Z,18.70
2023-01-20T21:41:08.273Z,21.80
2023-01-20T21:44:33.728Z,18.63
2023-01-20T21:47:36.431Z,19.97
2023-01-20T21:50:57.928Z,20.13
2023-01-20T21:54:00.531Z,18.97
2023-01-20T21:57:04.691Z,18.30
2023-01-20T22:00:10.554Z,18.33
2023-01-20T22:03:16.310Z,18.43
2023-01-20T22:06:20.283Z,19.33
2023-01-20T22:09:22.928Z,19.17
2023-01-20T22:12:25.832Z,18.30
2023-01-20T22:15:29.762Z,17.73
2023-01-20T22:18:32.740Z,18.20
2023-01-20T22:21:36.746Z,18.63
2023-01-20T22:24:39.449Z,18.00
2023-01-20T22:27:45.127Z,17.23
2023-01-20T22:30:47.920Z,17.83
2023-01-20T22:33:58.533Z,18.13
2023-01-20T22:37:02.596Z,17.10
2023-01-20T22:40:06.256Z,18.37
2023-01-20T22:43:08.920Z,18.47
2023-01-20T22:46:13.577Z,18.13
2023-01-20T22:49:16.267Z,19.30
2023-01-20T22:52:20.309Z,17.80
2023-01-20T22:55:25.374Z,17.40
2023-01-20T22:58:28.061Z,19.17
2023-01-20T23:01:32.764Z,18.20
2023-01-20T23:04:38.441Z,18.37
2023-01-20T23:07:44.714Z,18.17
2023-01-20T23:10:47.436Z,19.50
2023-01-20T23:13:50.566Z,17.70
2023-01-20T23:16:53.320Z,19.03
2023-01-20T23:19:56.565Z,19.13
2023-01-20T23:23:03.823Z,18.13
2023-01-20T23:26:08.694Z,16.80
2023-01-20T23:29:11.335Z,18.93
2023-01-20T23:32:14.977Z,17.83
2023-01-20T23:35:17.827Z,16.73
2023-01-20T23:38:25.605Z,17.87
2023-01-20T23:41:28.357Z,16.00
2023-01-20T23:44:30.997Z,16.90
2023-01-20T23:47:36.788Z,17.47
2023-01-20T23:50:41.056Z,18.03
2023-01-20T23:53:45.214Z,16.50
2023-01-20T23:56:47.889Z,16.23
2023-01-20T23:59:50.506Z,18.23
